createdAt,value
2023-05-15T00:00:45.811Z,34.08
2023-05-15T00:03:13.674Z,31.98
2023-05-15T00:05:42.976Z,32.50
2023-05-15T00:08:11.078Z,37.42
2023-05-15T00:10:41.023Z,32.92
2023-05-15T00:13:12.774Z,29.33
2023-05-15T00:15:40.610Z,28.85
2023-05-15T00:18:08.517Z,32.97
2023-05-15T00:20:36.702Z,31.05
2023-05-15T00:23:05.918Z,42.80
2023-05-15T00:25:33.716Z,30.45
2023-05-15T00:28:01.570Z,40.20
2023-05-15T00:30:29.725Z,28.42
2023-05-15T00:32:57.569Z,31.80
2023-05-15T00:35:25.644Z,30.52
2023-05-15T00:37:53.620Z,26.17
2023-05-15T00:40:25.767Z,30.58
2023-05-15T00:42:54.397Z,42.70
2023-05-15T00:45:23.556Z,34.10
2023-05-15T00:47:52.377Z,34.72
2023-05-15T00:50:21.158Z,32.40
2023-05-15T00:52:49.991Z,35.60
2023-05-15T00:55:17.981Z,30.20
2023-05-15T00:57:49.056Z,37.83
2023-05-15T01:00:18.592Z,39.97
2023-05-15T01:02:47.010Z,36.92
2023-05-15T01:05:15.049Z,39.65
2023-05-15T01:07:50.227Z,32.17
2023-05-15T01:10:20.631Z,38.58
2023-05-15T01:12:54.317Z,31.98
2023-05-15T01:15:22.302Z,37.40
2023-05-15T01:17:51.983Z,36.90
2023-05-15T01:20:21.815Z,39.33
2023-05-15T01:22:58.560Z,31.63
2023-05-15T01:26:24.250Z,33.75
2023-05-15T01:29:00.268Z,31.48
2023-05-15T01:31:32.843Z,32.92
2023-05-15T01:34:05.026Z,30.52
2023-05-15T01:36:38.866Z,32.70
2023-05-15T01:39:08.260Z,36.33
2023-05-15T01:41:44.184Z,33.72
2023-05-15T01:44:18.564Z,35.08
2023-05-15T01:46:50.764Z,35.63
2023-05-15T01:49:20.679Z,30.38
2023-05-15T01:51:54.253Z,36.95
2023-05-15T01:54:23.951Z,39.20
2023-05-15T01:56:53.564Z,41.25
2023-05-15T01:59:23.839Z,37.05
2023-05-15T02:01:52.395Z,32.78
2023-05-15T02:04:20.903Z,35.40
2023-05-15T02:06:50.448Z,35.33
2023-05-15T02:09:19.783Z,33.75
2023-05-15T02:11:48.195Z,34.63
2023-05-15T02:14:17.288Z,38.42
2023-05-15T02:16:46.589Z,40.17
2023-05-15T02:19:14.776Z,39.13
2023-05-15T02:21:42.974Z,39.67
2023-05-15T02:24:10.791Z,39.60
2023-05-15T02:26:50.627Z,44.45
2023-05-15T02:29:21.572Z,37.10
2023-05-15T02:31:58.658Z,39.72
2023-05-15T02:34:32.660Z,43.00
2023-05-15T02:37:02.287Z,38.78
2023-05-15T02:39:31.093Z,44.47
2023-05-15T02:42:00.939Z,39.88
2023-05-15T02:44:29.922Z,35.70
2023-05-15T02:47:00.724Z,35.08
2023-05-15T02:49:28.511Z,41.08
2023-05-15T02:51:56.230Z,39.15
2023-05-15T02:54:24.544Z,40.92
2023-05-15T02:56:52.385Z,37.55
2023-05-15T02:59:20.266Z,39.00
2023-05-15T03:01:48.559Z,36.47
2023-05-15T03:04:17.853Z,40.33
2023-05-15T03:06:45.677Z,43.05
2023-05-15T03:09:13.426Z,44.60
2023-05-15T03:11:41.169Z,46.53
2023-05-15T03:14:09.014Z,46.05
2023-05-15T03:16:38.866Z,46.13
2023-05-15T03:19:06.855Z,42.53
2023-05-15T03:21:36.094Z,48.05
2023-05-15T03:24:03.937Z,40.70
2023-05-15T03:26:31.802Z,47.53
2023-05-15T03:28:59.626Z,41.55
2023-05-15T03:31:27.411Z,41.10
2023-05-15T03:33:55.156Z,42.35
2023-05-15T03:36:23.259Z,39.67
2023-05-15T03:38:52.365Z,39.95
2023-05-15T03:41:20.108Z,36.20
2023-05-15T03:43:47.942Z,38.63
2023-05-15T03:46:16.123Z,38.58
2023-05-15T03:48:43.913Z,42.42
2023-05-15T03:51:11.918Z,37.90
2023-05-15T03:53:39.652Z,35.75
2023-05-15T03:56:09.164Z,39.33
2023-05-15T03:58:37.009Z,47.72
2023-05-15T04:01:04.875Z,36.78
2023-05-15T04:03:32.851Z,35.67
2023-05-15T04:06:00.918Z,36.40
2023-05-15T04:08:28.629Z,40.22
2023-05-15T04:10:56.356Z,45.08
2023-05-15T04:13:25.482Z,45.03
2023-05-15T04:15:54.026Z,47.83
2023-05-15T04:18:21.815Z,49.22
2023-05-15T04:20:49.888Z,44.53
2023-05-15T04:23:17.683Z,45.90
2023-05-15T04:25:46.846Z,42.92
2023-05-15T04:28:15.042Z,49.63
2023-05-15T04:30:44.380Z,41.22
2023-05-15T04:33:12.201Z,47.83
2023-05-15T04:35:40.466Z,40.92
2023-05-15T04:38:08.365Z,42.63
2023-05-15T04:40:36.505Z,46.60
2023-05-15T04:43:04.554Z,39.53
2023-05-15T04:45:32.521Z,37.25
2023-05-15T04:48:01.818Z,39.50
2023-05-15T04:50:29.735Z,38.90
2023-05-15T04:52:57.633Z,40.25
2023-05-15T04:55:25.517Z,40.95
2023-05-15T04:57:53.426Z,37.25
2023-05-15T05:00:21.460Z,39.20
2023-05-15T05:02:49.291Z,34.17
2023-05-15T05:05:18.538Z,32.28
2023-05-15T05:07:46.437Z,41.83
2023-05-15T05:10:14.611Z,36.60
2023-05-15T05:12:42.774Z,36.88
2023-05-15T05:15:11.740Z,32.70
2023-05-15T05:17:39.689Z,36.47
2023-05-15T05:20:12.938Z,34.58
2023-05-15T05:22:42.779Z,35.05
2023-05-15T05:25:11.050Z,33.45
2023-05-15T05:27:38.898Z,31.50
2023-05-15T05:30:08.545Z,33.15
2023-05-15T05:32:36.791Z,33.25
2023-05-15T05:35:05.042Z,32.65
2023-05-15T05:37:32.960Z,31.20
2023-05-15T05:40:02.219Z,32.28
2023-05-15T05:42:30.065Z,30.45
2023-05-15T05:44:57.843Z,33.67
2023-05-15T05:47:25.670Z,33.08
2023-05-15T05:49:55.188Z,29.98
2023-05-15T05:52:23.105Z,28.00
2023-05-15T05:54:51.184Z,31.85
2023-05-15T05:57:20.768Z,30.05
2023-05-15T05:59:49.929Z,30.48
2023-05-15T06:02:19.920Z,29.52
2023-05-15T06:04:47.939Z,29.25
2023-05-15T06:07:16.146Z,27.65
2023-05-15T06:09:46.075Z,28.48
2023-05-15T06:12:14.145Z,28.48
2023-05-15T06:14:43.602Z,25.33
2023-05-15T06:17:11.639Z,24.92
2023-05-15T06:19:39.464Z,27.77
2023-05-15T06:22:07.689Z,25.77
2023-05-15T06:24:35.746Z,24.98
2023-05-15T06:27:03.679Z,23.42
2023-05-15T06:29:31.502Z,24.83
2023-05-15T06:32:00.674Z,22.85
2023-05-15T06:34:28.452Z,22.48
2023-05-15T06:36:56.265Z,25.30
2023-05-15T06:39:24.156Z,22.77
2023-05-15T06:41:58.061Z,22.75
2023-05-15T06:44:26.005Z,29.50
2023-05-15T06:46:53.944Z,24.25
2023-05-15T06:49:23.385Z,25.50
2023-05-15T06:51:51.421Z,23.67
2023-05-15T06:54:19.512Z,27.05
2023-05-15T06:56:47.282Z,24.83
2023-05-15T06:59:15.117Z,28.95
2023-05-15T07:01:42.994Z,30.05
2023-05-15T07:04:13.270Z,28.92
2023-05-15T07:06:42.732Z,27.60
2023-05-15T07:09:10.579Z,27.77
2023-05-15T07:11:38.847Z,27.33
2023-05-15T07:14:07.677Z,26.13
2023-05-15T07:16:39.024Z,22.70
2023-05-15T07:19:06.977Z,24.75
2023-05-15T07:21:34.920Z,25.85
2023-05-15T07:24:04.314Z,29.08
2023-05-15T07:26:40.763Z,26.05
2023-05-15T07:31:45.620Z,26.10
2023-05-15T07:34:13.520Z,26.70
2023-05-15T07:36:41.506Z,25.50
2023-05-15T07:39:11.660Z,26.73
2023-05-15T07:41:39.521Z,32.60
2023-05-15T07:44:07.369Z,29.23
2023-05-15T07:46:36.362Z,24.25
2023-05-15T07:49:04.186Z,24.70
2023-05-15T07:51:31.982Z,23.27
2023-05-15T07:54:09.991Z,25.48
2023-05-15T07:56:40.540Z,24.73
2023-05-15T07:59:08.768Z,23.95
2023-05-15T08:01:36.825Z,22.05
2023-05-15T08:04:08.257Z,24.20
2023-05-15T08:06:38.338Z,22.77
2023-05-15T08:09:06.363Z,21.58
2023-05-15T08:11:34.143Z,22.40
2023-05-15T08:14:03.596Z,21.42
2023-05-15T08:16:31.740Z,21.90
2023-05-15T08:19:03.676Z,23.38
2023-05-15T08:21:35.379Z,25.58
2023-05-15T08:24:03.953Z,23.75
2023-05-15T08:26:31.856Z,23.40
2023-05-15T08:29:00.075Z,22.15
2023-05-15T08:31:29.600Z,25.33
2023-05-15T08:33:57.566Z,21.17
2023-05-15T08:36:25.579Z,21.23
2023-05-15T08:38:53.645Z,24.17
2023-05-15T08:41:39.930Z,20.83
2023-05-15T08:44:11.876Z,19.35
2023-05-15T08:46:41.497Z,18.70
2023-05-15T08:49:15.972Z,17.63
2023-05-15T08:51:44.241Z,16.48
2023-05-15T08:54:12.777Z,17.08
2023-05-15T08:56:41.167Z,17.63
2023-05-15T08:59:09.490Z,18.77
2023-05-15T09:01:38.225Z,17.15
2023-05-15T09:04:07.910Z,18.25
2023-05-15T09:06:38.914Z,17.00
2023-05-15T09:09:07.273Z,16.40
2023-05-15T09:11:38.431Z,18.17
2023-05-15T09:14:07.541Z,17.67
2023-05-15T09:16:35.754Z,16.67
2023-05-15T09:19:04.889Z,14.35
2023-05-15T09:21:37.625Z,16.77
2023-05-15T09:24:20.265Z,16.40
2023-05-15T09:27:02.134Z,15.07
2023-05-15T09:29:31.866Z,17.48
2023-05-15T09:32:04.407Z,15.48
2023-05-15T09:34:33.220Z,16.02
2023-05-15T09:37:04.879Z,15.05
2023-05-15T09:39:33.036Z,16.80
2023-05-15T09:42:11.949Z,15.65
2023-05-15T09:44:43.088Z,14.80
2023-05-15T09:47:17.909Z,13.70
2023-05-15T09:49:47.050Z,13.60
2023-05-15T09:52:17.311Z,14.77
2023-05-15T09:54:49.517Z,14.20
2023-05-15T09:57:23.560Z,14.15
2023-05-15T09:59:53.730Z,14.43
2023-05-15T10:02:24.986Z,14.65
2023-05-15T10:04:57.686Z,15.65
2023-05-15T10:07:38.125Z,16.92
2023-05-15T10:10:07.499Z,15.02
2023-05-15T10:12:37.090Z,13.88
2023-05-15T10:15:06.738Z,13.98
2023-05-15T10:17:36.994Z,12.60
2023-05-15T10:20:13.285Z,12.82
2023-05-15T10:22:46.667Z,12.65
2023-05-15T10:25:19.903Z,12.73
2023-05-15T10:27:49.143Z,14.13
2023-05-15T10:30:18.193Z,13.77
2023-05-15T10:32:46.623Z,15.68
2023-05-15T10:35:14.796Z,14.50
2023-05-15T10:37:46.732Z,13.52
2023-05-15T10:40:16.716Z,14.52
2023-05-15T10:42:47.476Z,17.92
2023-05-15T10:45:15.764Z,13.50
2023-05-15T10:47:45.299Z,13.05
2023-05-15T10:50:19.394Z,13.20
2023-05-15T10:52:52.448Z,12.23
2023-05-15T10:55:25.366Z,11.27
2023-05-15T10:57:56.583Z,11.40
2023-05-15T11:00:29.492Z,10.35
2023-05-15T11:02:59.118Z,11.38
2023-05-15T11:05:27.818Z,13.02
2023-05-15T11:08:30.021Z,10.77
2023-05-15T11:10:58.439Z,13.52
2023-05-15T11:13:28.097Z,12.70
2023-05-15T11:15:57.392Z,15.48
2023-05-15T11:18:26.857Z,14.30
2023-05-15T11:21:10.999Z,17.15
2023-05-15T11:23:43.374Z,14.73
2023-05-15T11:28:44.925Z,14.98
2023-05-15T11:31:13.436Z,14.45
2023-05-15T11:33:42.280Z,13.70
2023-05-15T11:36:11.856Z,13.95
2023-05-15T11:38:41.265Z,15.07
2023-05-15T11:41:24.028Z,16.10
2023-05-15T11:43:55.001Z,14.77
2023-05-15T11:46:25.821Z,16.25
2023-05-15T11:48:56.684Z,16.65
2023-05-15T11:51:28.941Z,15.65
2023-05-15T11:53:59.319Z,18.58
2023-05-15T11:56:29.625Z,18.60
2023-05-15T11:58:59.987Z,18.40
2023-05-15T12:01:39.921Z,16.83
2023-05-15T12:04:15.247Z,16.27
2023-05-15T12:06:44.634Z,15.63
2023-05-15T12:09:20.260Z,15.93
2023-05-15T12:11:54.655Z,14.88
2023-05-15T12:14:28.352Z,14.52
2023-05-15T12:17:02.931Z,16.80
2023-05-15T12:19:31.465Z,16.98
2023-05-15T12:22:01.373Z,16.55
2023-05-15T12:24:29.363Z,18.55
2023-05-15T12:26:59.525Z,16.88
2023-05-15T12:29:28.315Z,21.08
2023-05-15T12:31:56.712Z,24.38
2023-05-15T12:34:25.940Z,23.27
2023-05-15T12:36:54.026Z,22.27
2023-05-15T12:39:21.935Z,26.23
2023-05-15T12:41:50.029Z,21.83
2023-05-15T12:44:19.863Z,22.02
2023-05-15T12:46:49.600Z,20.33
2023-05-15T12:49:23.310Z,20.75
2023-05-15T12:51:51.402Z,21.52
2023-05-15T12:54:20.020Z,20.27
2023-05-15T12:56:48.501Z,20.48
2023-05-15T12:59:16.560Z,24.73
2023-05-15T13:01:46.405Z,24.60
2023-05-15T13:04:14.353Z,24.50
2023-05-15T13:06:46.899Z,25.05
2023-05-15T13:09:22.507Z,24.25
2023-05-15T13:11:50.897Z,24.80
2023-05-15T13:14:19.870Z,25.60
2023-05-15T13:16:49.152Z,26.52
2023-05-15T13:19:17.447Z,26.25
2023-05-15T13:21:45.747Z,24.17
2023-05-15T13:24:13.864Z,26.70
2023-05-15T13:26:41.897Z,25.25
2023-05-15T13:29:09.837Z,31.55
2023-05-15T13:31:38.281Z,24.52
2023-05-15T13:34:07.488Z,25.42
2023-05-15T13:36:35.904Z,24.15
2023-05-15T13:39:03.949Z,24.63
2023-05-15T13:41:31.759Z,21.70
2023-05-15T13:43:59.727Z,24.35
2023-05-15T13:46:27.753Z,26.00
2023-05-15T13:48:55.728Z,24.40
2023-05-15T13:51:25.020Z,23.17
2023-05-15T13:53:52.961Z,32.03
2023-05-15T13:56:22.414Z,22.70
2023-05-15T13:58:50.234Z,19.20
2023-05-15T14:01:18.235Z,21.55
2023-05-15T14:03:46.108Z,22.73
2023-05-15T14:06:13.981Z,21.25
2023-05-15T14:08:43.227Z,20.95
2023-05-15T14:11:11.064Z,22.38
2023-05-15T14:13:38.923Z,22.65
2023-05-15T14:16:09.331Z,21.25
2023-05-15T14:18:37.234Z,19.48
2023-05-15T14:21:05.189Z,19.75
2023-05-15T14:23:33.235Z,18.13
2023-05-15T14:26:02.755Z,20.20
2023-05-15T14:28:30.723Z,19.50
2023-05-15T14:30:58.585Z,19.10
2023-05-15T14:33:26.935Z,20.30
2023-05-15T14:35:54.839Z,24.45
2023-05-15T14:38:22.698Z,24.20
2023-05-15T14:40:50.530Z,24.55
2023-05-15T14:43:19.807Z,23.55
2023-05-15T14:45:47.642Z,21.77
2023-05-15T14:48:15.469Z,19.13
2023-05-15T14:50:43.313Z,18.98
2023-05-15T14:53:11.014Z,19.35
2023-05-15T14:55:39.136Z,16.15
2023-05-15T14:58:07.062Z,18.38
2023-05-15T15:00:36.809Z,20.20
2023-05-15T15:03:06.465Z,19.92
2023-05-15T15:05:34.483Z,20.35
2023-05-15T15:08:04.809Z,22.05
2023-05-15T15:10:33.483Z,22.33
2023-05-15T15:13:01.386Z,22.15
2023-05-15T15:15:33.782Z,23.05
2023-05-15T15:18:03.192Z,30.40
2023-05-15T15:20:31.199Z,26.77
2023-05-15T15:22:58.948Z,28.35
2023-05-15T15:25:27.073Z,28.27
2023-05-15T15:27:54.826Z,25.95
2023-05-15T15:30:22.516Z,25.00
2023-05-15T15:32:50.262Z,25.60
2023-05-15T15:35:20.141Z,28.58
2023-05-15T15:37:47.980Z,29.00
2023-05-15T15:40:15.896Z,27.17
2023-05-15T15:42:43.626Z,26.52
2023-05-15T15:45:11.792Z,25.15
2023-05-15T15:47:39.654Z,26.30
2023-05-15T15:50:08.129Z,23.73
2023-05-15T15:52:37.436Z,26.70
2023-05-15T15:55:05.826Z,25.27
2023-05-15T15:57:34.136Z,25.08
2023-05-15T16:00:01.971Z,26.63
2023-05-15T16:02:29.944Z,25.38
2023-05-15T16:04:57.741Z,25.20
2023-05-15T16:07:25.495Z,25.08
2023-05-15T16:10:07.796Z,26.90
2023-05-15T16:12:40.658Z,24.13
2023-05-15T16:15:21.708Z,24.13
2023-05-15T16:17:52.854Z,23.40
2023-05-15T16:20:21.788Z,22.17
2023-05-15T16:22:50.042Z,23.05
2023-05-15T16:25:19.353Z,23.13
2023-05-15T16:27:47.222Z,23.65
2023-05-15T16:30:15.871Z,24.65
2023-05-15T16:32:43.680Z,26.60
2023-05-15T16:35:11.493Z,25.00
2023-05-15T16:37:39.286Z,23.15
2023-05-15T16:40:08.501Z,22.30
2023-05-15T16:42:38.851Z,21.70
2023-05-15T16:45:08.349Z,21.23
2023-05-15T16:47:38.244Z,21.98
2023-05-15T16:50:07.419Z,23.55
2023-05-15T16:52:35.891Z,24.98
2023-05-15T16:55:04.344Z,26.77
2023-05-15T16:57:32.292Z,26.40
2023-05-15T17:00:01.676Z,25.40
2023-05-15T17:02:29.568Z,20.42
2023-05-15T17:04:57.331Z,21.55
2023-05-15T17:07:25.086Z,26.85
2023-05-15T17:09:55.814Z,25.95
2023-05-15T17:12:24.467Z,23.90
2023-05-15T17:14:52.279Z,26.10
2023-05-15T17:17:23.319Z,30.27
2023-05-15T17:19:51.298Z,30.70
2023-05-15T17:22:19.159Z,29.73
2023-05-15T17:24:51.412Z,23.83
2023-05-15T17:27:20.486Z,31.75
2023-05-15T17:29:48.719Z,23.27
2023-05-15T17:32:17.257Z,28.27
2023-05-15T17:34:46.743Z,22.08
2023-05-15T17:37:15.216Z,27.85
2023-05-15T17:39:43.076Z,26.77
2023-05-15T17:42:10.894Z,26.08
2023-05-15T17:44:38.798Z,24.00
2023-05-15T17:47:06.583Z,26.75
2023-05-15T17:49:34.547Z,25.98
2023-05-15T17:52:03.669Z,24.58
2023-05-15T17:54:31.483Z,23.17
2023-05-15T17:56:59.505Z,27.00
2023-05-15T17:59:27.567Z,25.38
2023-05-15T18:01:55.430Z,30.05
2023-05-15T18:04:23.529Z,21.98
2023-05-15T18:06:52.297Z,23.10
2023-05-15T18:09:30.718Z,20.98
2023-05-15T18:11:58.697Z,20.08
2023-05-15T18:14:26.665Z,19.48
2023-05-15T18:16:57.488Z,24.23
2023-05-15T18:19:25.432Z,18.48
2023-05-15T18:21:53.284Z,21.10
2023-05-15T18:24:22.512Z,23.40
2023-05-15T18:26:50.288Z,18.95
2023-05-15T18:29:18.052Z,17.95
2023-05-15T18:31:45.998Z,19.67
2023-05-15T18:34:14.046Z,17.38
2023-05-15T18:36:41.917Z,17.75
2023-05-15T18:39:09.700Z,20.02
2023-05-15T18:41:38.947Z,16.15
2023-05-15T18:44:06.711Z,18.85
2023-05-15T18:46:40.287Z,18.35
2023-05-15T18:49:08.386Z,19.17
2023-05-15T18:51:36.856Z,17.10
2023-05-15T18:54:04.945Z,17.98
2023-05-15T18:56:32.744Z,15.82
2023-05-15T18:59:01.890Z,16.88
2023-05-15T19:01:29.629Z,16.92
2023-05-15T19:03:57.792Z,16.67
2023-05-15T19:06:25.516Z,16.77
2023-05-15T19:08:53.286Z,15.27
2023-05-15T19:11:21.313Z,15.13
2023-05-15T19:13:57.083Z,17.52
2023-05-15T19:16:28.713Z,15.15
2023-05-15T19:18:56.892Z,14.48
2023-05-15T19:21:24.672Z,14.98
2023-05-15T19:23:52.406Z,16.35
2023-05-15T19:26:21.621Z,15.55
2023-05-15T19:28:49.789Z,15.18
2023-05-15T19:31:30.786Z,13.77
2023-05-15T19:34:01.508Z,12.70
2023-05-15T19:36:29.343Z,11.98
2023-05-15T19:38:57.644Z,11.15
2023-05-15T19:41:25.496Z,11.50
2023-05-15T19:43:58.799Z,10.27
2023-05-15T19:46:29.117Z,12.55
2023-05-15T19:48:56.947Z,11.73
2023-05-15T19:51:26.200Z,10.00
2023-05-15T19:53:56.665Z,11.02
2023-05-15T19:56:25.258Z,11.60
2023-05-15T19:58:53.164Z,10.50
2023-05-15T20:01:22.901Z,9.93
2023-05-15T20:03:51.012Z,9.05
2023-05-15T20:06:19.121Z,10.63
2023-05-15T20:08:57.131Z,10.93
2023-05-15T20:11:27.983Z,12.73
2023-05-15T20:13:55.941Z,8.90
2023-05-15T20:16:25.782Z,10.27
2023-05-15T20:18:55.061Z,9.38
2023-05-15T20:21:22.921Z,11.18
2023-05-15T20:23:52.103Z,9.10
2023-05-15T20:26:27.403Z,10.15
2023-05-15T20:28:55.469Z,9.95
2023-05-15T20:31:23.839Z,8.65
2023-05-15T20:33:51.604Z,10.82
2023-05-15T20:36:22.221Z,10.93
2023-05-15T20:38:52.329Z,10.68
2023-05-15T20:41:23.168Z,8.57
2023-05-15T20:43:51.420Z,8.60
2023-05-15T20:46:19.615Z,9.85
2023-05-15T20:48:49.558Z,8.45
2023-05-15T20:51:17.626Z,9.65
2023-05-15T20:53:45.737Z,9.95
2023-05-15T20:56:13.725Z,8.52
2023-05-15T20:58:43.335Z,9.00
2023-05-15T21:01:11.434Z,9.68
2023-05-15T21:03:39.445Z,10.70
2023-05-15T21:06:07.944Z,11.98
2023-05-15T21:08:38.789Z,10.85
2023-05-15T21:11:07.609Z,9.80
2023-05-15T21:13:35.752Z,9.50
2023-05-15T21:16:06.482Z,12.85
2023-05-15T21:18:34.589Z,10.20
2023-05-15T21:21:03.160Z,12.23
2023-05-15T21:23:30.947Z,11.80
2023-05-15T21:26:05.696Z,12.88
2023-05-15T21:28:40.942Z,11.30
2023-05-15T21:31:10.473Z,10.38
2023-05-15T21:33:38.931Z,12.88
2023-05-15T21:36:07.137Z,10.10
2023-05-15T21:38:34.880Z,10.63
2023-05-15T21:41:03.245Z,9.88
2023-05-15T21:43:31.168Z,11.60
2023-05-15T21:45:59.008Z,11.45
2023-05-15T21:48:28.113Z,8.50
2023-05-15T21:50:56.417Z,9.25
2023-05-15T21:53:25.361Z,11.10
2023-05-15T21:55:59.949Z,8.38
2023-05-15T21:58:30.116Z,7.70
2023-05-15T22:00:57.938Z,9.25
2023-05-15T22:03:25.970Z,10.93
2023-05-15T22:05:55.608Z,10.38
2023-05-15T22:08:23.817Z,11.35
2023-05-15T22:11:21.507Z,10.85
2023-05-15T22:14:12.767Z,7.95
2023-05-15T22:16:48.209Z,8.85
2023-05-15T22:21:59.684Z,8.38
2023-05-15T22:27:24.266Z,12.05
2023-05-15T22:30:08.280Z,9.07
2023-05-15T22:32:44.670Z,10.23
2023-05-15T22:35:39.646Z,12.20
2023-05-15T22:38:15.545Z,12.45
2023-05-15T22:41:05.198Z,13.93
2023-05-15T22:43:39.666Z,14.07
2023-05-15T22:46:07.560Z,14.48
2023-05-15T22:48:37.009Z,18.23
2023-05-15T22:51:05.149Z,21.52
2023-05-15T22:53:34.675Z,17.33
2023-05-15T22:56:02.469Z,19.70
2023-05-15T22:58:30.348Z,16.02
2023-05-15T23:00:58.312Z,20.80
2023-05-15T23:03:26.261Z,16.70
2023-05-15T23:05:54.472Z,16.60
2023-05-15T23:08:22.651Z,16.20
2023-05-15T23:10:53.213Z,12.38
2023-05-15T23:13:20.989Z,14.60
2023-05-15T23:15:49.154Z,11.93
2023-05-15T23:18:17.406Z,11.38
2023-05-15T23:20:45.825Z,11.65
2023-05-15T23:23:13.580Z,11.00
2023-05-15T23:25:41.322Z,9.73
2023-05-15T23:28:10.427Z,12.00
2023-05-15T23:30:38.372Z,8.60
2023-05-15T23:33:06.298Z,12.43
2023-05-15T23:35:34.247Z,8.93
2023-05-15T23:38:02.048Z,8.55
2023-05-15T23:40:31.439Z,7.95
2023-05-15T23:42:59.278Z,9.18
2023-05-15T23:45:28.477Z,8.18
2023-05-15T23:47:56.365Z,5.97
2023-05-15T23:50:24.384Z,4.20
2023-05-15T23:52:52.318Z,5.32
2023-05-15T23:55:20.348Z,5.32
2023-05-15T23:57:48.361Z,3.35
